Terminal Aerodrome Forecast
Issued by NWS Pueblo, CO

Home | Current Version | Previous Version | Text Only | Print | Product List | Glossary On
Versions: 1 2 3 4 5 6 7 8 9 10 11 12 13 14 15 16 17 18 19 20 21 22 23 24 25 26 27 28 29 30 31 32 33 34 35 36 37
000
FTUS45 KPUB 261725
TAFCOS
TAF
KCOS 261725Z 2618/2718 35010KT 6SM -SN FEW020 SCT028 BKN035
      TEMPO 2618/2620 1SM -SN BR FEW005 OVC012
     FM262000 03015KT 3SM -SN BR BKN012
     FM262200 02012KT 6SM -SN BKN020
     FM270300 VRB05KT P6SM VCSH BKN030
     FM270600 VRB05KT P6SM SCT030 SCT100=

USA.gov is the U.S. government's official web portal to all federal, state and local government web resources and services.